sensor_id;sensor_type;location;lat;lon;timestamp;pressure;altitude;pressure_sealevel;temperature;humidity
72921;BME280;61064;51.654;5.476;2023-10-13T00:01:07;101203.63;;;17.84;100.00
72921;BME280;61064;51.654;5.476;2023-10-13T00:03:33;101207.16;;;17.88;100.00
72921;BME280;61064;51.654;5.476;2023-10-13T00:05:59;101208.97;;;17.87;100.00
72921;BME280;61064;51.654;5.476;2023-10-13T00:08:29;101205.38;;;17.86;100.00
72921;BME280;61064;51.654;5.476;2023-10-13T00:10:57;101199.09;;;17.88;100.00
72921;BME280;61064;51.654;5.476;2023-10-13T00:13:28;101192.03;;;17.80;100.00
72921;BME280;61064;51.654;5.476;2023-10-13T00:15:59;101183.88;;;17.83;100.00
72921;BME280;61064;51.654;5.476;2023-10-13T00:18:31;101187.44;;;17.87;100.00
72921;BME280;61064;51.654;5.476;2023-10-13T00:21:08;101177.59;;;17.84;100.00
72921;BME280;61064;51.654;5.476;2023-10-13T00:23:44;101174.88;;;17.86;100.00
72921;BME280;61064;51.654;5.476;2023-10-13T00:26:23;101176.66;;;17.87;100.00
72921;BME280;61064;51.654;5.476;2023-10-13T00:28:53;101172.19;;;17.88;100.00
72921;BME280;61064;51.654;5.476;2023-10-13T00:31:38;101182.06;;;17.87;100.00
72921;BME280;61064;51.654;5.476;2023-10-13T00:34:06;101177.56;;;17.88;100.00
72921;BME280;61064;51.654;5.476;2023-10-13T00:36:54;101156.13;;;17.81;100.00
72921;BME280;61064;51.654;5.476;2023-10-13T00:39:52;101158.84;;;17.80;100.00
72921;BME280;61064;51.654;5.476;2023-10-13T00:42:21;101164.22;;;17.80;100.00
72921;BME280;61064;51.654;5.476;2023-10-13T00:44:58;101159.72;;;17.82;100.00
72921;BME280;61064;51.654;5.476;2023-10-13T00:47:26;101165.06;;;17.83;100.00
72921;BME280;61064;51.654;5.476;2023-10-13T00:50:06;101156.13;;;17.81;100.00
72921;BME280;61064;51.654;5.476;2023-10-13T00:52:37;101154.38;;;17.79;100.00
72921;BME280;61064;51.654;5.476;2023-10-13T00:55:07;101153.56;;;17.74;100.00
72921;BME280;61064;51.654;5.476;2023-10-13T00:57:33;101158.84;;;17.80;100.00
72921;BME280;61064;51.654;5.476;2023-10-13T01:00:00;101147.22;;;17.78;100.00
72921;BME280;61064;51.654;5.476;2023-10-13T01:02:37;101137.44;;;17.72;100.00
72921;BME280;61064;51.654;5.476;2023-10-13T01:05:04;101139.22;;;17.75;100.00
72921;BME280;61064;51.654;5.476;2023-10-13T01:07:30;101133.03;;;17.70;100.00
72921;BME280;61064;51.654;5.476;2023-10-13T01:09:55;101136.53;;;17.73;100.00
72921;BME280;61064;51.654;5.476;2023-10-13T01:12:21;101137.44;;;17.74;100.00
72921;BME280;61064;51.654;5.476;2023-10-13T01:14:49;101132.13;;;17.71;100.00
72921;BME280;61064;51.654;5.476;2023-10-13T01:17:15;101130.25;;;17.73;100.00
72921;BME280;61064;51.654;5.476;2023-10-13T01:19:40;101124.88;;;17.73;100.00
72921;BME280;61064;51.654;5.476;2023-10-13T01:22:08;101114.22;;;17.67;100.00
72921;BME280;61064;51.654;5.476;2023-10-13T01:24:34;101118.69;;;17.69;100.00
72921;BME280;61064;51.654;5.476;2023-10-13T01:27:01;101118.69;;;17.68;100.00
72921;BME280;61064;51.654;5.476;2023-10-13T01:29:42;101114.22;;;17.67;100.00
72921;BME280;61064;51.654;5.476;2023-10-13T01:32:13;101103.47;;;17.67;100.00
72921;BME280;61064;51.654;5.476;2023-10-13T01:34:38;101097.34;;;17.60;100.00
72921;BME280;61064;51.654;5.476;2023-10-13T01:37:03;101099.06;;;17.63;100.00
72921;BME280;61064;51.654;5.476;2023-10-13T01:39:31;101101.75;;;17.63;100.00
72921;BME280;61064;51.654;5.476;2023-10-13T01:41:56;101099.09;;;17.61;100.00
72921;BME280;61064;51.654;5.476;2023-10-13T01:44:26;101087.47;;;17.61;100.00
72921;BME280;61064;51.654;5.476;2023-10-13T01:46:53;101087.47;;;17.61;100.00
72921;BME280;61064;51.654;5.476;2023-10-13T01:49:18;101087.47;;;17.58;100.00
72921;BME280;61064;51.654;5.476;2023-10-13T01:51:44;101071.31;;;17.58;100.00
72921;BME280;61064;51.654;5.476;2023-10-13T01:54:12;101073.09;;;17.59;100.00
72921;BME280;61064;51.654;5.476;2023-10-13T01:56:38;101074.00;;;17.58;100.00
72921;BME280;61064;51.654;5.476;2023-10-13T01:59:13;101061.59;;;17.51;100.00
72921;BME280;61064;51.654;5.476;2023-10-13T02:01:39;101053.50;;;17.52;100.00
72921;BME280;61064;51.654;5.476;2023-10-13T02:04:06;101060.56;;;17.56;100.00
72921;BME280;61064;51.654;5.476;2023-10-13T02:06:36;101051.69;;;17.53;100.00
72921;BME280;61064;51.654;5.476;2023-10-13T02:09:06;101049.03;;;17.51;100.00
72921;BME280;61064;51.654;5.476;2023-10-13T02:11:42;101043.66;;;17.51;100.00
72921;BME280;61064;51.654;5.476;2023-10-13T02:14:11;101040.94;;;17.51;100.00
72921;BME280;61064;51.654;5.476;2023-10-13T02:16:38;101030.25;;;17.48;100.00
72921;BME280;61064;51.654;5.476;2023-10-13T02:19:06;101022.19;;;17.48;100.00
72921;BME280;61064;51.654;5.476;2023-10-13T02:21:40;101041.81;;;17.53;100.00
72921;BME280;61064;51.654;5.476;2023-10-13T02:24:09;101030.31;;;17.45;100.00
72921;BME280;61064;51.654;5.476;2023-10-13T02:26:44;101046.34;;;17.51;100.00
72921;BME280;61064;51.654;5.476;2023-10-13T02:29:10;101035.56;;;17.51;100.00
72921;BME280;61064;51.654;5.476;2023-10-13T02:31:41;101033.84;;;17.49;100.00
72921;BME280;61064;51.654;5.476;2023-10-13T02:34:07;101026.59;;;17.51;100.00
72921;BME280;61064;51.654;5.476;2023-10-13T02:36:42;101019.47;;;17.50;100.00
72921;BME280;61064;51.654;5.476;2023-10-13T02:39:15;101018.63;;;17.48;100.00
72921;BME280;61064;51.654;5.476;2023-10-13T02:41:50;101020.41;;;17.49;100.00
72921;BME280;61064;51.654;5.476;2023-10-13T02:44:16;101001.56;;;17.49;100.00
72921;BME280;61064;51.654;5.476;2023-10-13T02:46:52;100987.31;;;17.43;100.00
72921;BME280;61064;51.654;5.476;2023-10-13T02:49:20;100987.25;;;17.46;100.00
72921;BME280;61064;51.654;5.476;2023-10-13T02:51:45;100973.88;;;17.42;100.00
72921;BME280;61064;51.654;5.476;2023-10-13T02:54:11;100986.34;;;17.48;100.00
72921;BME280;61064;51.654;5.476;2023-10-13T02:56:40;100975.59;;;17.46;100.00
72921;BME280;61064;51.654;5.476;2023-10-13T02:59:22;100956.84;;;17.43;100.00
72921;BME280;61064;51.654;5.476;2023-10-13T03:02:02;100964.81;;;17.48;100.00
72921;BME280;61064;51.654;5.476;2023-10-13T03:04:39;100962.13;;;17.48;100.00
72921;BME280;61064;51.654;5.476;2023-10-13T03:07:05;100954.06;;;17.48;100.00
72921;BME280;61064;51.654;5.476;2023-10-13T03:09:31;100955.78;;;17.50;100.00
72921;BME280;61064;51.654;5.476;2023-10-13T03:12:02;100946.78;;;17.51;100.00
72921;BME280;61064;51.654;5.476;2023-10-13T03:14:29;100938.72;;;17.53;100.00
72921;BME280;61064;51.654;5.476;2023-10-13T03:17:02;100932.41;;;17.54;100.00
72921;BME280;61064;51.654;5.476;2023-10-13T03:19:29;100917.25;;;17.50;100.00
72921;BME280;61064;51.654;5.476;2023-10-13T03:22:01;100922.47;;;17.56;100.00
72921;BME280;61064;51.654;5.476;2023-10-13T03:24:41;100921.56;;;17.57;100.00
72921;BME280;61064;51.654;5.476;2023-10-13T03:27:18;100917.09;;;17.57;100.00
72921;BME280;61064;51.654;5.476;2023-10-13T03:29:48;100907.22;;;17.58;100.00
72921;BME280;61064;51.654;5.476;2023-10-13T03:32:20;100908.09;;;17.58;100.00
72921;BME280;61064;51.654;5.476;2023-10-13T03:34:46;100897.34;;;17.60;100.00
72921;BME280;61064;51.654;5.476;2023-10-13T03:37:35;100891.97;;;17.58;100.00
72921;BME280;61064;51.654;5.476;2023-10-13T03:40:13;100880.28;;;17.59;100.00
72921;BME280;61064;51.654;5.476;2023-10-13T03:45:39;100875.75;;;17.61;100.00
72921;BME280;61064;51.654;5.476;2023-10-13T03:48:06;100859.63;;;17.61;100.00
72921;BME280;61064;51.654;5.476;2023-10-13T03:50:36;100860.56;;;17.60;100.00
72921;BME280;61064;51.654;5.476;2023-10-13T03:53:03;100853.38;;;17.61;100.00
72921;BME280;61064;51.654;5.476;2023-10-13T03:55:31;100852.50;;;17.59;100.00
72921;BME280;61064;51.654;5.476;2023-10-13T03:58:02;100845.31;;;17.59;100.00
72921;BME280;61064;51.654;5.476;2023-10-13T04:00:29;100858.66;;;17.65;100.00
72921;BME280;61064;51.654;5.476;2023-10-13T04:02:57;100838.16;;;17.60;100.00
72921;BME280;61064;51.654;5.476;2023-10-13T04:05:37;100820.09;;;17.65;100.00
72921;BME280;61064;51.654;5.476;2023-10-13T04:08:10;100824.44;;;17.72;100.00
72921;BME280;61064;51.654;5.476;2023-10-13T04:10:55;100798.50;;;17.68;100.00
72921;BME280;61064;51.654;5.476;2023-10-13T04:13:21;100807.34;;;17.73;100.00
72921;BME280;61064;51.654;5.476;2023-10-13T04:16:12;100790.41;;;17.69;100.00
72921;BME280;61064;51.654;5.476;2023-10-13T04:19:00;100785.94;;;17.68;100.00
72921;BME280;61064;51.654;5.476;2023-10-13T04:21:26;100791.19;;;17.73;100.00
72921;BME280;61064;51.654;5.476;2023-10-13T04:24:30;100797.19;;;17.84;100.00
72921;BME280;61064;51.654;5.476;2023-10-13T04:27:25;100800.75;;;17.86;100.00
72921;BME280;61064;51.654;5.476;2023-10-13T04:30:18;100785.56;;;17.83;100.00
72921;BME280;61064;51.654;5.476;2023-10-13T04:32:59;100784.63;;;17.84;100.00
72921;BME280;61064;51.654;5.476;2023-10-13T04:38:26;100778.09;;;17.95;100.00
72921;BME280;61064;51.654;5.476;2023-10-13T04:40:58;100770.97;;;17.94;100.00
72921;BME280;61064;51.654;5.476;2023-10-13T04:43:26;100768.22;;;17.95;100.00
72921;BME280;61064;51.654;5.476;2023-10-13T04:46:14;100776.22;;;17.98;100.00
72921;BME280;61064;51.654;5.476;2023-10-13T04:49:00;100777.94;;;18.01;100.00
72921;BME280;61064;51.654;5.476;2023-10-13T04:51:32;100780.56;;;18.05;100.00
72921;BME280;61064;51.654;5.476;2023-10-13T04:54:20;100782.22;;;18.09;100.00
72921;BME280;61064;51.654;5.476;2023-10-13T04:57:01;100781.31;;;18.10;100.00
72921;BME280;61064;51.654;5.476;2023-10-13T04:59:45;100757.03;;;18.12;100.00
72921;BME280;61064;51.654;5.476;2023-10-13T05:02:32;100760.59;;;18.12;100.00
72921;BME280;61064;51.654;5.476;2023-10-13T05:05:22;100758.00;;;18.09;100.00
72921;BME280;61064;51.654;5.476;2023-10-13T05:07:50;100761.28;;;18.20;100.00
72921;BME280;61064;51.654;5.476;2023-10-13T05:11:07;100773.75;;;18.24;100.00
72921;BME280;61064;51.654;5.476;2023-10-13T05:13:51;100755.03;;;18.20;100.00
72921;BME280;61064;51.654;5.476;2023-10-13T05:16:35;100744.22;;;18.21;100.00
72921;BME280;61064;51.654;5.476;2023-10-13T05:19:19;100755.69;;;18.28;100.00
72921;BME280;61064;51.654;5.476;2023-10-13T05:22:04;100746.56;;;18.34;100.00
72921;BME280;61064;51.654;5.476;2023-10-13T05:24:48;100724.09;;;18.35;100.00
72921;BME280;61064;51.654;5.476;2023-10-13T05:27:31;100694.47;;;18.35;100.00
72921;BME280;61064;51.654;5.476;2023-10-13T05:30:15;100696.22;;;18.37;100.00
72921;BME280;61064;51.654;5.476;2023-10-13T05:32:59;100699.81;;;18.36;100.00
72921;BME280;61064;51.654;5.476;2023-10-13T05:35:46;100700.69;;;18.38;100.00
72921;BME280;61064;51.654;5.476;2023-10-13T05:38:30;100692.66;;;18.35;100.00
72921;BME280;61064;51.654;5.476;2023-10-13T05:41:14;100706.06;;;18.38;100.00
72921;BME280;61064;51.654;5.476;2023-10-13T05:43:58;100718.56;;;18.39;100.00
72921;BME280;61064;51.654;5.476;2023-10-13T05:46:42;100706.94;;;18.39;100.00
72921;BME280;61064;51.654;5.476;2023-10-13T05:49:26;100706.94;;;18.39;100.00
72921;BME280;61064;51.654;5.476;2023-10-13T05:52:05;100689.03;;;18.36;100.00
72921;BME280;61064;51.654;5.476;2023-10-13T05:54:47;100691.69;;;18.38;100.00
72921;BME280;61064;51.654;5.476;2023-10-13T05:57:31;100699.69;;;18.41;100.00
72921;BME280;61064;51.654;5.476;2023-10-13T06:00:15;100706.88;;;18.40;100.00
72921;BME280;61064;51.654;5.476;2023-10-13T06:02:59;100698.81;;;18.40;100.00
72921;BME280;61064;51.654;5.476;2023-10-13T06:05:43;100690.78;;;18.39;100.00
72921;BME280;61064;51.654;5.476;2023-10-13T06:08:27;100696.06;;;18.42;100.00
72921;BME280;61064;51.654;5.476;2023-10-13T06:11:11;100696.06;;;18.42;100.00
72921;BME280;61064;51.654;5.476;2023-10-13T06:13:55;100687.19;;;18.38;100.00
72921;BME280;61064;51.654;5.476;2023-10-13T06:16:39;100699.72;;;18.39;100.00
72921;BME280;61064;51.654;5.476;2023-10-13T06:19:23;100678.25;;;18.38;100.00
72921;BME280;61064;51.654;5.476;2023-10-13T06:22:07;100703.19;;;18.44;100.00
72921;BME280;61064;51.654;5.476;2023-10-13T06:24:51;100691.53;;;18.44;100.00
72921;BME280;61064;51.654;5.476;2023-10-13T06:27:35;100688.78;;;18.45;100.00
72921;BME280;61064;51.654;5.476;2023-10-13T06:30:19;100675.31;;;18.45;100.00
72921;BME280;61064;51.654;5.476;2023-10-13T06:32:44;100680.75;;;18.44;100.00
72921;BME280;61064;51.654;5.476;2023-10-13T06:35:11;100678.88;;;18.46;100.00
72921;BME280;61064;51.654;5.476;2023-10-13T06:37:49;100678.88;;;18.46;100.00
72921;BME280;61064;51.654;5.476;2023-10-13T06:40:15;100656.53;;;18.44;100.00
72921;BME280;61064;51.654;5.476;2023-10-13T06:42:46;100666.31;;;18.46;100.00
72921;BME280;61064;51.654;5.476;2023-10-13T06:45:12;100666.31;;;18.46;100.00
72921;BME280;61064;51.654;5.476;2023-10-13T06:47:38;100657.41;;;18.44;100.00
72921;BME280;61064;51.654;5.476;2023-10-13T06:50:09;100656.44;;;18.45;100.00
72921;BME280;61064;51.654;5.476;2023-10-13T06:52:49;100656.44;;;18.45;100.00
72921;BME280;61064;51.654;5.476;2023-10-13T06:55:20;100648.38;;;18.45;100.00
72921;BME280;61064;51.654;5.476;2023-10-13T06:58:00;100631.47;;;18.40;100.00
72921;BME280;61064;51.654;5.476;2023-10-13T07:00:26;100635.03;;;18.41;100.00
72921;BME280;61064;51.654;5.476;2023-10-13T07:02:57;100635.84;;;18.44;100.00
72921;BME280;61064;51.654;5.476;2023-10-13T07:05:39;100632.28;;;18.44;100.00
72921;BME280;61064;51.654;5.476;2023-10-13T07:08:25;100627.00;;;18.39;100.00
72921;BME280;61064;51.654;5.476;2023-10-13T07:10:54;100602.88;;;18.35;100.00
72921;BME280;61064;51.654;5.476;2023-10-13T07:13:33;100611.72;;;18.40;100.00
72921;BME280;61064;51.654;5.476;2023-10-13T07:16:05;100612.47;;;18.45;100.00
72921;BME280;61064;51.654;5.476;2023-10-13T07:18:33;100606.28;;;18.41;100.00
72921;BME280;61064;51.654;5.476;2023-10-13T07:21:08;100608.84;;;18.46;100.00
72921;BME280;61064;51.654;5.476;2023-10-13T07:23:38;100593.56;;;18.46;100.00
72921;BME280;61064;51.654;5.476;2023-10-13T07:26:07;100581.09;;;18.44;100.00
72921;BME280;61064;51.654;5.476;2023-10-13T07:28:36;100577.53;;;18.42;100.00
72921;BME280;61064;51.654;5.476;2023-10-13T07:31:03;100586.38;;;18.47;100.00
72921;BME280;61064;51.654;5.476;2023-10-13T07:33:43;100589.84;;;18.50;100.00
72921;BME280;61064;51.654;5.476;2023-10-13T07:36:09;100603.25;;;18.53;100.00
72921;BME280;61064;51.654;5.476;2023-10-13T07:38:45;100589.75;;;18.55;100.00
72921;BME280;61064;51.654;5.476;2023-10-13T07:41:17;100587.97;;;18.55;100.00
72921;BME280;61064;51.654;5.476;2023-10-13T07:43:47;100608.28;;;18.65;100.00
72921;BME280;61064;51.654;5.476;2023-10-13T07:46:14;100583.00;;;18.69;100.00
72921;BME280;61064;51.654;5.476;2023-10-13T07:48:40;100585.81;;;18.66;100.00
72921;BME280;61064;51.654;5.476;2023-10-13T07:51:09;100579.25;;;18.75;100.00
72921;BME280;61064;51.654;5.476;2023-10-13T07:53:45;100581.63;;;18.84;100.00
72921;BME280;61064;51.654;5.476;2023-10-13T07:56:14;100580.72;;;18.85;100.00
72921;BME280;61064;51.654;5.476;2023-10-13T07:58:43;100574.28;;;18.89;100.00
72921;BME280;61064;51.654;5.476;2023-10-13T08:01:40;100558.19;;;18.88;100.00
72921;BME280;61064;51.654;5.476;2023-10-13T08:04:10;100557.25;;;18.89;100.00
72921;BME280;61064;51.654;5.476;2023-10-13T08:06:36;100572.34;;;18.94;100.00
72921;BME280;61064;51.654;5.476;2023-10-13T08:09:02;100557.84;;;18.98;100.00
72921;BME280;61064;51.654;5.476;2023-10-13T08:11:54;100554.94;;;19.04;100.00
72921;BME280;61064;51.654;5.476;2023-10-13T08:14:20;100570.91;;;19.10;100.00
72921;BME280;61064;51.654;5.476;2023-10-13T08:16:54;100568.66;;;19.23;100.00
72921;BME280;61064;51.654;5.476;2023-10-13T08:19:24;100560.53;;;19.25;100.00
72921;BME280;61064;51.654;5.476;2023-10-13T08:21:56;100564.84;;;19.30;100.00
72921;BME280;61064;51.654;5.476;2023-10-13T08:24:39;100557.53;;;19.34;100.00
72921;BME280;61064;51.654;5.476;2023-10-13T08:27:06;100568.81;;;19.46;100.00
72921;BME280;61064;51.654;5.476;2023-10-13T08:29:45;100561.28;;;19.56;100.00
72921;BME280;61064;51.654;5.476;2023-10-13T08:32:26;100553.81;;;19.64;100.00
72921;BME280;61064;51.654;5.476;2023-10-13T08:34:52;100548.19;;;19.70;100.00
72921;BME280;61064;51.654;5.476;2023-10-13T08:37:18;100544.44;;;19.74;100.00
72921;BME280;61064;51.654;5.476;2023-10-13T08:39:56;100526.47;;;19.73;100.00
72921;BME280;61064;51.654;5.476;2023-10-13T08:45:13;100533.91;;;19.91;100.00
72921;BME280;61064;51.654;5.476;2023-10-13T08:47:48;100543.78;;;19.92;100.00
72921;BME280;61064;51.654;5.476;2023-10-13T08:50:34;100544.31;;;20.02;100.00
72921;BME280;61064;51.654;5.476;2023-10-13T08:56:05;100527.84;;;20.10;100.00
72921;BME280;61064;51.654;5.476;2023-10-13T08:58:45;100538.63;;;20.10;100.00
72921;BME280;61064;51.654;5.476;2023-10-13T09:04:19;100500.47;;;20.19;100.00
72921;BME280;61064;51.654;5.476;2023-10-13T09:06:49;100521.84;;;20.25;99.90
72921;BME280;61064;51.654;5.476;2023-10-13T09:09:48;100509.16;;;20.27;99.32
72921;BME280;61064;51.654;5.476;2023-10-13T09:12:29;100510.78;;;20.31;99.27
72921;BME280;61064;51.654;5.476;2023-10-13T09:14:58;100525.09;;;20.34;98.63
72921;BME280;61064;51.654;5.476;2023-10-13T09:17:30;100514.22;;;20.36;97.99
72921;BME280;61064;51.654;5.476;2023-10-13T09:20:07;100506.97;;;20.38;97.80
72921;BME280;61064;51.654;5.476;2023-10-13T09:22:49;100528.56;;;20.38;97.55
72921;BME280;61064;51.654;5.476;2023-10-13T09:25:27;100490.84;;;20.35;97.36
72921;BME280;61064;51.654;5.476;2023-10-13T09:27:58;100520.56;;;20.35;97.25
72921;BME280;61064;51.654;5.476;2023-10-13T09:30:26;100490.03;;;20.33;97.11
72921;BME280;61064;51.654;5.476;2023-10-13T09:33:01;100506.19;;;20.34;96.83
72921;BME280;61064;51.654;5.476;2023-10-13T09:35:43;100481.25;;;20.26;96.78
72921;BME280;61064;51.654;5.476;2023-10-13T09:38:14;100497.13;;;20.36;96.60
72921;BME280;61064;51.654;5.476;2023-10-13T09:40:42;100495.25;;;20.38;96.37
72921;BME280;61064;51.654;5.476;2023-10-13T09:43:16;100499.50;;;20.45;96.40
72921;BME280;61064;51.654;5.476;2023-10-13T09:45:45;100499.41;;;20.46;95.66
72921;BME280;61064;51.654;5.476;2023-10-13T09:48:37;100495.53;;;20.53;94.83
72921;BME280;61064;51.654;5.476;2023-10-13T09:51:14;100499.88;;;20.57;95.06
72921;BME280;61064;51.654;5.476;2023-10-13T09:53:41;100499.75;;;20.60;94.82
72921;BME280;61064;51.654;5.476;2023-10-13T09:56:24;100497.75;;;20.65;94.50
72921;BME280;61064;51.654;5.476;2023-10-13T10:01:27;100485.66;;;20.74;94.12
72921;BME280;61064;51.654;5.476;2023-10-13T10:04:10;100466.69;;;20.75;93.57
72921;BME280;61064;51.654;5.476;2023-10-13T10:06:54;100472.78;;;20.81;93.04
72921;BME280;61064;51.654;5.476;2023-10-13T10:09:32;100473.34;;;20.89;92.83
72921;BME280;61064;51.654;5.476;2023-10-13T10:15:20;100470.19;;;20.99;92.15
72921;BME280;61064;51.654;5.476;2023-10-13T10:18:02;100428.63;;;20.80;91.54
72921;BME280;61064;51.654;5.476;2023-10-13T10:20:33;100385.66;;;20.52;91.18
72921;BME280;61064;51.654;5.476;2023-10-13T10:23:09;100387.28;;;20.56;91.05
72921;BME280;61064;51.654;5.476;2023-10-13T10:25:47;100423.16;;;20.82;90.96
72921;BME280;61064;51.654;5.476;2023-10-13T10:28:12;100414.44;;;20.75;90.30
72921;BME280;61064;51.654;5.476;2023-10-13T10:30:41;100444.97;;;20.99;90.34
72921;BME280;61064;51.654;5.476;2023-10-13T10:33:08;100410.72;;;20.78;89.78
72921;BME280;61064;51.654;5.476;2023-10-13T10:35:46;100410.34;;;20.87;89.67
72921;BME280;61064;51.654;5.476;2023-10-13T10:38:15;100433.22;;;21.00;89.38
72921;BME280;61064;51.654;5.476;2023-10-13T10:43:27;100423.28;;;21.00;88.86
72921;BME280;61064;51.654;5.476;2023-10-13T10:45:55;100432.19;;;21.02;88.71
72921;BME280;61064;51.654;5.476;2023-10-13T10:48:26;100424.91;;;21.04;88.27
72921;BME280;61064;51.654;5.476;2023-10-13T10:50:57;100352.44;;;20.70;87.63
72921;BME280;61064;51.654;5.476;2023-10-13T10:53:24;100365.56;;;20.80;87.35
72921;BME280;61064;51.654;5.476;2023-10-13T10:56:06;100363.69;;;20.82;86.94
72921;BME280;61064;51.654;5.476;2023-10-13T10:58:47;100429.94;;;21.34;86.30
72921;BME280;61064;51.654;5.476;2023-10-13T11:01:14;100411.41;;;21.25;86.09
72921;BME280;61064;51.654;5.476;2023-10-13T11:04:06;100392.28;;;21.07;85.63
72921;BME280;61064;51.654;5.476;2023-10-13T11:06:45;100414.66;;;21.33;85.44
72921;BME280;61064;51.654;5.476;2023-10-13T11:09:12;100374.88;;;21.14;85.08
72921;BME280;61064;51.654;5.476;2023-10-13T11:14:39;100345.72;;;21.01;84.96
72921;BME280;61064;51.654;5.476;2023-10-13T11:17:07;100345.31;;;21.10;84.17
72921;BME280;61064;51.654;5.476;2023-10-13T11:19:42;100345.78;;;21.20;84.37
72921;BME280;61064;51.654;5.476;2023-10-13T11:22:21;100367.09;;;21.27;84.38
72921;BME280;61064;51.654;5.476;2023-10-13T11:25:10;100336.38;;;21.08;84.54
72921;BME280;61064;51.654;5.476;2023-10-13T11:27:41;100314.47;;;20.94;84.63
72921;BME280;61064;51.654;5.476;2023-10-13T11:30:19;100362.03;;;21.20;85.04
72921;BME280;61064;51.654;5.476;2023-10-13T11:33:04;100363.34;;;21.09;84.89
72921;BME280;61064;51.654;5.476;2023-10-13T11:35:33;100387.38;;;21.37;84.94
72921;BME280;61064;51.654;5.476;2023-10-13T11:38:33;100341.25;;;21.20;85.18
72921;BME280;61064;51.654;5.476;2023-10-13T11:41:15;100354.47;;;21.46;85.40
72921;BME280;61064;51.654;5.476;2023-10-13T11:43:51;100322.09;;;21.25;85.12
72921;BME280;61064;51.654;5.476;2023-10-13T11:46:24;100342.09;;;21.41;84.75
72921;BME280;61064;51.654;5.476;2023-10-13T11:49:10;100335.84;;;21.59;84.83
72921;BME280;61064;51.654;5.476;2023-10-13T11:51:48;100305.91;;;21.43;84.13
72921;BME280;61064;51.654;5.476;2023-10-13T11:54:16;100305.34;;;21.55;84.20
72921;BME280;61064;51.654;5.476;2023-10-13T11:56:44;100268.38;;;21.36;83.65
72921;BME280;61064;51.654;5.476;2023-10-13T11:59:20;100261.94;;;21.38;83.32
72921;BME280;61064;51.654;5.476;2023-10-13T12:01:53;100274.25;;;21.45;83.35
72921;BME280;61064;51.654;5.476;2023-10-13T12:04:39;100265.97;;;21.48;82.53
72921;BME280;61064;51.654;5.476;2023-10-13T12:07:21;100296.91;;;21.80;81.86
72921;BME280;61064;51.654;5.476;2023-10-13T12:09:51;100310.97;;;21.88;81.92
72921;BME280;61064;51.654;5.476;2023-10-13T12:12:34;100238.31;;;21.61;81.57
72921;BME280;61064;51.654;5.476;2023-10-13T12:15:07;100306.81;;;22.00;80.97
72921;BME280;61064;51.654;5.476;2023-10-13T12:17:51;100267.06;;;21.82;80.71
72921;BME280;61064;51.654;5.476;2023-10-13T12:20:19;100288.63;;;22.02;80.48
72921;BME280;61064;51.654;5.476;2023-10-13T12:22:58;100301.22;;;22.22;80.46
72921;BME280;61064;51.654;5.476;2023-10-13T12:25:35;100297.63;;;22.21;80.03
72921;BME280;61064;51.654;5.476;2023-10-13T12:28:10;100257.91;;;22.03;79.53
72921;BME280;61064;51.654;5.476;2023-10-13T12:30:46;100284.72;;;22.26;79.72
72921;BME280;61064;51.654;5.476;2023-10-13T12:33:17;100311.28;;;22.37;79.25
72921;BME280;61064;51.654;5.476;2023-10-13T12:36:00;100298.66;;;22.36;78.61
72921;BME280;61064;51.654;5.476;2023-10-13T12:38:32;100321.91;;;22.59;78.42
72921;BME280;61064;51.654;5.476;2023-10-13T12:41:19;100316.41;;;22.60;78.02
72921;BME280;61064;51.654;5.476;2023-10-13T12:44:04;100302.22;;;22.55;77.84
72921;BME280;61064;51.654;5.476;2023-10-13T12:46:49;100291.19;;;22.58;77.77
72921;BME280;61064;51.654;5.476;2023-10-13T12:49:33;100296.22;;;22.66;77.39
72921;BME280;61064;51.654;5.476;2023-10-13T12:52:11;100297.44;;;22.60;76.95
72921;BME280;61064;51.654;5.476;2023-10-13T12:54:51;100257.78;;;22.58;76.66
72921;BME280;61064;51.654;5.476;2023-10-13T12:57:29;100293.53;;;22.83;76.41
72921;BME280;61064;51.654;5.476;2023-10-13T12:59:57;100258.41;;;22.63;76.27
72921;BME280;61064;51.654;5.476;2023-10-13T13:02:24;100289.97;;;22.83;75.79
72921;BME280;61064;51.654;5.476;2023-10-13T13:04:53;100297.53;;;22.93;75.55
72921;BME280;61064;51.654;5.476;2023-10-13T13:07:26;100266.69;;;22.78;75.22
72921;BME280;61064;51.654;5.476;2023-10-13T13:12:46;100268.41;;;22.79;74.73
72921;BME280;61064;51.654;5.476;2023-10-13T13:15:19;100213.44;;;22.59;74.36
72921;BME280;61064;51.654;5.476;2023-10-13T13:17:48;100255.09;;;22.75;74.34
72921;BME280;61064;51.654;5.476;2023-10-13T13:20:16;100236.31;;;22.70;74.06
72921;BME280;61064;51.654;5.476;2023-10-13T13:22:54;100260.94;;;22.85;73.70
72921;BME280;61064;51.654;5.476;2023-10-13T13:25:20;100249.53;;;22.78;73.52
72921;BME280;61064;51.654;5.476;2023-10-13T13:27:51;100243.59;;;22.87;73.06
72921;BME280;61064;51.654;5.476;2023-10-13T13:30:24;100228.78;;;22.77;73.02
72921;BME280;61064;51.654;5.476;2023-10-13T13:33:13;100288.56;;;23.08;71.71
72921;BME280;61064;51.654;5.476;2023-10-13T13:35:53;100227.09;;;22.74;72.96
72921;BME280;61064;51.654;5.476;2023-10-13T13:38:18;100242.31;;;22.94;72.58
72921;BME280;61064;51.654;5.476;2023-10-13T13:40:55;100251.16;;;22.80;72.43
72921;BME280;61064;51.654;5.476;2023-10-13T13:43:24;100209.47;;;22.66;72.60
72921;BME280;61064;51.654;5.476;2023-10-13T13:46:09;100215.91;;;22.63;72.48
72921;BME280;61064;51.654;5.476;2023-10-13T13:48:38;100260.81;;;22.86;71.92
72921;BME280;61064;51.654;5.476;2023-10-13T13:51:07;100269.38;;;22.96;72.07